Rexburg, ID (83441)

11:16 PM MST on December 05, 2016 (GMT -0700)
Fort Peacock | | Change Station

Elev 4915 ft 43.80 °N, 111.80 °W | Updated 5 seconds ago

Clear
Clear
13.7 °F
Feels Like 1 °F
N
10.0
Wind Variable Wind from South

Today
High -- | Low -- °F
--% Chance of Precip.
Yesterday
High -- | Low -- °F
Precip. -- in
Pressure 30.14 in
Visibility 10.0 miles
Clouds Clear
Windchill 1 °F
Dew Point 4 °F
Humidity 66%
Rainfall 0.00 in
Snow Depth Not available.
7:46 AM 4:49 PM
Waxing Crescent, 38% visible
METAR KRXE 060553Z AUTO 18008KT 10SM CLR M10/M15 A2998 RMK AO2 SLP207 T11001150 11061 21100 58000
Pressure 30.14 in
Visibility 10.0 miles
Clouds Clear
Windchill 1 °F
Dew Point 4 °F
Humidity 66%
Rainfall 0.00 in
Snow Depth Not available.
7:46 AM 4:49 PM
Waxing Crescent, 38% visible
METAR KRXE 060553Z AUTO 18008KT 10SM CLR M10/M15 A2998 RMK AO2 SLP207 T11001150 11061 21100 58000

10-Day Weather Forecast

Almanac

Astronomy

Dec. 05, 2016 Rise Set
Actual Time
Civil Twilight
Nautical Twilight
Astronomical Twilight
Moon
Length of Visible Light
Length of Day
Tomorrow will be .
, % of the Moon is Illuminated

Today's Extremes

State Highs State Lows

Community

WunderPhotos

Upload Photos

1,955,931 photos uploaded!

WunderBlog® & News

Nearby

Air Quality

  Air Quality AQ Index Pollutant
Not available.

Snow Depth

Station Depth Elevation

Earthquake Activity

City Distance Mag. Time & Date
Minimum magnitude displayed is 2.5.

Coastal Water Temperatures

Place Temperature

Stations

Nearby Weather Stations

Station Location Temp. Windchill Dew Point Humidity Wind Precip. Elev Updated Type
                   

Watches & Warnings

There are currently no watches in effect.